• Join FlightAware (Why Join?)
  • Login
  • US Flag GB Flag 
05:19 EDT


 

Airport Tracker/Info


-or-


 

Live Flight TrackerFlight Track Log ✈ UAL4498 ✈ 03-May-2013 ✈ KMCI - KEWR

Flight Track Log - Related Links

Times and Time Zones

All times are in EDT time to prevent confusion due to time zone crossing. See the UAL4498 flight status page for this flight to view local times or setup timezone preferences in your user account.

Time Position Orientation Groundspeed Altitude Reporting Facility
EDT Latitude Longitude Course Direction KTS MPH feet Rate Location/Type
19:34 39.3167 -94.7167 82° East 141 162 1,700  Level Kansas City TRACON
19:35 39.3333 -94.7000 38° Northeast 175 201 2,800 2,940 Climbing Kansas City TRACON
19:36 39.3556 -94.6306 67° East 242 278 6,100 3,120 Climbing Kansas City Center
19:37 39.3597 -94.5431 86° East 254 292 9,100 2,220 Climbing Kansas City Center
19:38 39.3438 -94.2518 80° East  Level FlightAware Approximate
19:38 39.3644 -94.4464 86° East 286 329 10,800  Level Kansas City Center
19:39 39.3613 -94.1233 80° East  Level FlightAware Approximate
19:39 39.3708 -94.3161 86° East 324 373 13,500  Level Kansas City Center
19:40 39.3780 -93.9819 82° East  Level FlightAware Approximate
19:40 39.3756 -94.1994 87° East 338 389 15,600  Level Kansas City Center
19:41 39.3800 -94.0611 88° East 345 397 18,100 2,220 Climbing Kansas City Center
19:42 39.3856 -93.9461 86° East 337 388 20,300 2,640 Climbing Kansas City Center
19:43 39.4031 -93.8167 80° East 327 376 23,600 2,580 Climbing Kansas City Center
19:44 39.4150 -93.7194 81° East 316 364 25,700 2,460 Climbing Kansas City Center
19:45 39.4322 -93.5897 80° East 307 353 28,800 2,520 Climbing Kansas City Center
19:46 39.4439 -93.4881 82° East 292 336 31,000 1,980 Climbing Kansas City Center
19:47 39.4564 -93.3869 81° East 289 333 32,900 960 Climbing Kansas City Center
19:48 39.4683 -93.2764 82° East 310 357 33,000 540 Climbing Kansas City Center
19:49 39.4808 -93.1547 82° East 341 392 34,100 1,860 Climbing Kansas City Center
19:50 39.4894 -93.0161 85° East 330 380 36,900 1,380 Climbing Kansas City Center
19:51 39.4981 -92.9036 84° East 323 372 37,000  Climbing Kansas City Center
19:52 39.5075 -92.7800 84° East 330 380 37,000  Level Kansas City Center
19:53 39.5183 -92.6489 84° East 348 400 37,000  Level Kansas City Center
19:54 39.5281 -92.5053 85° East 387 445 37,000  Level Kansas City Center
19:55 39.5400 -92.3583 84° East 406 467 37,000  Level Kansas City Center
19:56 39.5514 -92.1886 85° East 403 464 37,000  Level Kansas City Center
19:57 39.5608 -92.0503 85° East 396 456 37,000  Level Kansas City Center
19:58 39.5706 -91.9114 85° East 392 451 37,000  Level Kansas City Center
20:00 39.5789 -91.7742 85° East 388 447 37,000  Level Kansas City Center
20:01 39.5886 -91.6339 85° East 391 450 37,000  Level Kansas City Center
20:02 39.6006 -91.4656 85° East 394 453 37,000  Level Kansas City Center
20:03 39.6089 -91.3183 86° East 393 452 37,000  Level Kansas City Center
20:04 39.6178 -91.1772 85° East 393 452 37,000  Level Kansas City Center
20:05 39.6275 -91.0339 85° East 395 455 37,000  Level Kansas City Center
20:06 39.6356 -90.8942 86° East 393 452 37,000  Level Kansas City Center
20:07 39.6439 -90.7517 86° East 395 455 37,000  Level Kansas City Center
20:08 39.6519 -90.6064 86° East 399 459 37,000  Level Kansas City Center
20:09 39.6606 -90.4594 86° East 406 467 37,000  Level Kansas City Center
20:10 39.6681 -90.3131 86° East 407 468 37,000  Level Kansas City Center
20:11 39.6775 -90.1375 86° East 407 468 37,000  Level Kansas City Center
20:12 39.6847 -89.9936 86° East 403 464 37,000  Level Kansas City Center
20:13 39.6917 -89.8494 86° East 400 460 37,000  Level Kansas City Center
20:14 39.6983 -89.7050 87° East 401 461 37,000  Level Kansas City Center
20:15 39.7061 -89.5583 86° East 405 466 37,000  Level Kansas City Center
20:16 39.7136 -89.4053 86° East 415 478 37,000  Level Kansas City Center
20:17 39.7197 -89.2564 87° East 415 478 37,000  Level Kansas City Center
20:18 39.7281 -89.0811 86° East 410 472 37,000  Level Kansas City Center
20:19 39.7339 -88.9386 87° East 405 466 37,000  Level Kansas City Center
20:20 39.7403 -88.7942 87° East 402 463 37,000  Level Kansas City Center
20:21 39.7456 -88.6450 87° East 406 467 37,000  Level Kansas City Center
20:22 39.7528 -88.4917 86° East 415 478 37,000  Level Kansas City Center
20:23 39.7600 -88.3406 86° East 420 483 37,000  Level Kansas City Center
20:24 39.7664 -88.1686 87° East 420 483 37,000  Level Kansas City Center
20:25 39.7656 -88.1233 91° East 419 482 37,000  Level Indianapolis Center
20:26 39.7700 -87.9706 88° East 423 487 37,000  Level Indianapolis Center
20:27 39.7758 -87.8169 87° East 426 490 37,000  Level Indianapolis Center
20:28 39.7814 -87.6317 88° East 429 494 37,000  Level Indianapolis Center
20:29 39.7872 -87.4769 87° East 430 495 37,000  Level Indianapolis Center
20:30 39.7906 -87.3222 88° East 429 494 37,000  Level Indianapolis Center
20:31 39.7958 -87.1683 87° East 429 494 37,000  Level Indianapolis Center
20:32 39.7994 -87.0144 88° East 427 491 37,000  Level Indianapolis Center
20:33 39.8031 -86.8611 88° East 427 491 37,000  Level Indianapolis Center
20:34 39.8075 -86.7083 88° East 425 489 37,000  Level Indianapolis Center
20:35 39.8106 -86.5533 88° East 427 491 37,000  Level Indianapolis Center
20:36 39.8144 -86.3983 88° East 428 493 37,000  Level Indianapolis Center
20:37 39.8461 -86.2186 77° East 437 503 37,000  Level Indianapolis Center
20:38 39.8825 -86.0519 74° East 443 510 37,000  Level Indianapolis Center
20:39 39.9144 -85.8989 75° East 440 506 37,000  Level Indianapolis Center
20:40 39.9633 -85.7511 67° East 448 516 37,000  Level Indianapolis Center
20:41 40.0167 -85.6056 64° Northeast 448 516 37,000  Level Indianapolis Center
20:42 40.0589 -85.4561 70° East 441 507 37,000  Level Indianapolis Center
20:43 40.1039 -85.3058 69° East 446 513 37,000  Level Indianapolis Center
20:44 40.1461 -85.1531 70° East 446 513 37,000  Level Indianapolis Center
20:45 40.1903 -85.0025 69° East 445 512 37,000  Level Indianapolis Center
20:46 40.2392 -84.8261 70° East 449 517 37,000  Level Indianapolis Center
20:47 40.2833 -84.6719 69° East 449 517 37,000  Level Indianapolis Center
20:48 40.3264 -84.5175 70° East 447 514 37,000  Level Indianapolis Center
20:49 40.3703 -84.3631 70° East 448 516 37,000  Level Indianapolis Center
20:50 40.4128 -84.2083 70° East 446 513 37,000  Level Indianapolis Center
20:51 40.4547 -84.0514 71° East 449 517 37,000  Level Indianapolis Center
20:52 40.4989 -83.8944 70° East 452 520 37,000  Level Indianapolis Center
20:53 40.5414 -83.7356 71° East 455 524 37,000 -60 Level Indianapolis Center
20:54 40.5850 -83.5744 70° East 460 529 36,900  Descending Indianapolis Center
20:56 40.6372 -83.3878 70° East 449 517 37,000  Climbing Cleveland Center
20:57 40.6764 -83.2333 71° East 444 511 37,000  Level Cleveland Center
20:58 40.7194 -83.0733 70° East 444 511 37,000  Level Cleveland Center
20:59 40.7625 -82.9106 71° East 455 524 37,000  Level Cleveland Center
21:00 40.8033 -82.7392 72° East 455 524 37,000  Level Cleveland Center
21:01 40.8461 -82.5786 71° East 455 524 37,000  Level Cleveland Center
21:02 40.8861 -82.4206 71° East 460 529 37,000  Level Cleveland Center
21:03 40.9261 -82.2622 71° East 459 528 37,000  Level Cleveland Center
21:04 40.9681 -82.1039 71° East 454 522 37,000  Level Cleveland Center
21:05 41.0075 -81.9450 72° East 459 528 37,000  Level Cleveland Center
21:06 41.0469 -81.7864 72° East 459 528 37,000  Level Cleveland Center
21:07 41.0858 -81.6300 72° East 454 522 37,000  Level Cleveland Center
21:08 41.1247 -81.4708 72° East 449 517 37,000  Level Cleveland Center
21:09 41.1633 -81.3114 72° East 449 517 37,000  Level Cleveland Center
21:10 41.2019 -81.1544 72° East 454 522 37,000  Level Cleveland Center
21:11 41.2422 -80.9917 72° East 454 522 37,000  Level Cleveland Center
21:12 41.2800 -80.8344 72° East 454 522 37,000  Level Cleveland Center
21:13 41.3178 -80.6717 73° East 454 522 37,000  Level Cleveland Center
21:14 41.3533 -80.5333 71° East 454 522 37,000  Level Cleveland Center
21:15 41.3886 -80.3783 73° East 448 516 37,000  Level Cleveland Center
21:16 41.4300 -80.2036 72° East 443 510 37,000  Level Cleveland Center
21:17 41.4689 -80.0456 72° East 443 510 37,000  Level Cleveland Center
21:18 41.5033 -79.8900 73° East 443 510 37,000  Level Cleveland Center
21:19 41.5400 -79.7258 73° East 443 510 37,000  Level Cleveland Center
21:20 41.5761 -79.5700 73° East 443 510 37,000  Level Cleveland Center
21:21 41.6100 -79.4111 74° East 443 510 37,000  Level Cleveland Center
21:22 41.6458 -79.2522 73° East 443 510 37,000  Level Cleveland Center
21:23 41.6439 -79.0883 91° East 430 495 37,000  Level Cleveland Center
21:24 41.6250 -78.9219 99° East 435 501 37,000  Level Cleveland Center
21:25 41.5881 -78.6042 99° East 418 481 37,000  Level New York Center
21:26 41.5717 -78.4411 98° East 443 510 37,000 -960 Level New York Center
21:27 41.5506 -78.2836 100° East 445 512 35,200 -2,040 Descending New York Center
21:28 41.5314 -78.1206 99° East 435 501 33,000 -2,040 Descending New York Center
21:29 41.5119 -77.9631 99° East 428 493 31,100 -1,020 Descending New York Center
21:30 41.4867 -77.7942 101° East 444 511 31,000 -60 Descending New York Center
21:31 41.4631 -77.6283 101° East 485 558 31,000 -540 Level New York Center
21:32 41.4422 -77.4794 101° East 472 543 30,000 -2,340 Descending New York Center
21:33 41.4164 -77.3081 101° East 451 519 26,400 -3,480 Descending New York Center
21:34 41.3953 -77.1594 101° East 426 490 23,200 -3,180 Descending New York Center
21:35 41.3717 -77.0161 102° East 409 471 20,000 -2,580 Descending New York Center
21:36 41.3536 -76.8819 100° East 392 451 18,000 -1,020 Descending New York Center
21:37 41.3314 -76.7500 103° East 370 426 18,000  Level New York Center
21:38 41.2975 -76.6336 111° Southeast 370 426 18,000  Level New York Center
21:39 41.2642 -76.5039 109° East 375 432 18,000  Level New York Center
21:40 41.2253 -76.3597 110° East 375 432 18,000  Level New York Center
21:41 41.1917 -76.2331 109° East 375 432 18,000  Level New York Center
21:42 41.1561 -76.1006 110° East 375 432 18,000  Level New York Center
21:43 41.1239 -75.9822 110° East 380 437 18,000 -720 Level New York Center
21:44 41.0861 -75.8444 110° East 375 432 16,600 -1,800 Descending New York Center
21:45 41.0536 -75.7239 110° East 359 413 14,400 -1,800 Descending New York Center
21:46 41.0211 -75.6058 110° East 352 405 13,000 -720 Descending New York Center
21:47 40.9897 -75.5019 112° Southeast 341 392 13,000 -60 Level New York Center
21:48 40.9553 -75.3706 109° East 341 392 12,900 -900 Descending New York Center
21:49 40.9258 -75.2694 111° Southeast 334 384 11,300 -1,500 Descending New York Center
21:50 40.8964 -75.1661 111° Southeast 310 357 9,900 -1,860 Descending New York Center
21:51 40.8669 -75.0625 111° Southeast 283 326 7,700 -1,500 Descending New York Center
21:52 40.8431 -74.9733 109° East 265 305 7,000 -360 Descending New York Center
21:53 40.8169 -74.8867 112° Southeast 251 289 7,000 -60 Level New York Center
21:54 40.8261 -74.8022 82° East 248 285 6,900 -540 Descending New York Center
21:55 40.8542 -74.7133 67° East 237 273 6,000 -780 Descending New York Center
21:56 40.8733 -74.6375 71° East 237 273 5,400 -540 Descending New York Center
21:57 40.8889 -74.5453 77° East 237 273 5,000 -660 Descending New York Center
21:58 40.9017 -74.4692 77° East 237 273 4,200 -1,020 Descending New York Center
21:59 40.9211 -74.3767 74° East 237 273 3,000 -540 Descending New York Center
22:01 40.9333 -74.2833 80° East 246 283 3,100  Climbing New York TRACON
22:01 40.9167 -74.2167 108° East 243 280 3,100 -60 Level New York TRACON
22:02 40.8833 -74.1333 118° Southeast 240 276 3,000 -180 Descending New York TRACON
22:03 40.8333 -74.1167 166° South 184 212 2,800 -480 Descending New York TRACON
22:04 40.7833 -74.1167 180° South 183 211 2,200 -900 Descending New York TRACON
22:05 40.7333 -74.1333 194° South 146 168 1,000 -1,140 Descending New York TRACON